Time;durP1;ratioP1;P1;durP2;ratioP2;P2;SDS_P1;SDS_P2;PMS_P1;PMS_P2;Temp;Humidity;BMP_temperature;BMP_pressure;BME280_temperature;BME280_humidity;BME280_pressure;Samples;Min_cycle;Max_cycle;Signal;HPM_P1;HPM_P2
2023/03/08 00:01:00;;;;;;;9.13;2.00;;;0.00;99.90;;;;;;4891472;29;37390;-76
2023/03/08 00:03:27;;;;;;;4.40;1.90;;;-0.10;99.90;;;;;;4887374;29;38358;-77
2023/03/08 00:05:53;;;;;;;2.93;1.57;;;-0.10;99.90;;;;;;4897100;29;37176;-76
2023/03/08 00:08:19;;;;;;;6.40;1.67;;;-0.10;99.90;;;;;;4892439;28;36476;-78
2023/03/08 00:10:45;;;;;;;6.43;1.90;;;-0.20;99.90;;;;;;4892286;29;38080;-76
2023/03/08 00:13:12;;;;;;;5.57;2.10;;;-0.10;99.90;;;;;;4901619;28;39422;-76
2023/03/08 00:15:38;;;;;;;7.30;3.13;;;-0.10;99.90;;;;;;4888069;29;38079;-77
2023/03/08 00:18:05;;;;;;;4.33;2.03;;;0.00;99.90;;;;;;4889173;28;39097;-76
2023/03/08 00:20:32;;;;;;;5.17;1.70;;;0.00;99.90;;;;;;4891694;29;37486;-76
2023/03/08 00:22:58;;;;;;;5.00;1.47;;;0.00;99.90;;;;;;4908461;29;37824;-77
2023/03/08 00:25:24;;;;;;;5.77;1.57;;;0.00;99.90;;;;;;4888402;29;38026;-76
2023/03/08 00:27:50;;;;;;;2.47;1.27;;;0.00;99.90;;;;;;4909839;28;38822;-76
2023/03/08 00:30:17;;;;;;;6.03;1.63;;;-0.10;99.90;;;;;;4888521;29;39252;-77
2023/03/08 00:32:43;;;;;;;6.90;1.70;;;-0.20;99.90;;;;;;4906167;28;39038;-76
2023/03/08 00:35:09;;;;;;;8.37;1.67;;;-0.20;99.90;;;;;;4890137;29;37687;-77
2023/03/08 00:37:35;;;;;;;6.50;1.40;;;-0.20;99.90;;;;;;4911008;29;38959;-77
2023/03/08 00:40:02;;;;;;;4.93;1.50;;;-0.30;99.90;;;;;;4903977;29;40026;-77
2023/03/08 00:42:28;;;;;;;3.37;1.80;;;-0.30;99.90;;;;;;4894653;29;37847;-77
2023/03/08 00:44:54;;;;;;;6.13;1.30;;;-0.30;99.90;;;;;;4920076;28;37398;-77
2023/03/08 00:47:20;;;;;;;8.33;1.80;;;-0.30;99.90;;;;;;4897576;29;39563;-77
2023/03/08 00:49:47;;;;;;;2.73;1.23;;;-0.40;99.90;;;;;;4890532;29;38730;-77
2023/03/08 00:52:13;;;;;;;5.10;1.60;;;-0.40;99.90;;;;;;4888665;28;38528;-77
2023/03/08 00:54:39;;;;;;;2.83;1.90;;;-0.40;99.90;;;;;;4894160;29;35813;-78
2023/03/08 00:57:05;;;;;;;7.13;1.70;;;-0.40;99.90;;;;;;4895144;29;37549;-78
2023/03/08 00:59:32;;;;;;;7.63;1.83;;;-0.50;99.90;;;;;;4907213;28;37884;-77
2023/03/08 01:01:59;;;;;;;6.20;1.67;;;-0.50;99.90;;;;;;4887289;29;36723;-77
2023/03/08 01:04:25;;;;;;;3.60;1.73;;;-0.50;99.90;;;;;;4901063;29;36431;-77
2023/03/08 01:06:52;;;;;;;2.93;1.60;;;-0.60;99.90;;;;;;4899197;29;37497;-76
2023/03/08 01:09:18;;;;;;;6.10;1.80;;;-0.50;99.90;;;;;;4902982;28;38538;-77
2023/03/08 01:11:44;;;;;;;4.77;1.40;;;-0.50;99.90;;;;;;4901807;29;38171;-77
2023/03/08 01:14:10;;;;;;;9.33;1.90;;;-0.50;99.90;;;;;;4901129;28;37032;-77
2023/03/08 01:16:36;;;;;;;2.90;1.13;;;-0.40;99.90;;;;;;4889183;29;38743;-78
2023/03/08 01:19:04;;;;;;;5.77;1.73;;;-0.40;99.90;;;;;;4902881;29;37950;-77
2023/03/08 01:21:31;;;;;;;4.63;1.43;;;-0.50;99.90;;;;;;4910993;28;38952;-77
2023/03/08 01:23:58;;;;;;;7.50;1.63;;;-0.50;99.90;;;;;;4896652;29;35797;-77
2023/03/08 01:26:26;;;;;;;6.07;1.77;;;-0.50;99.90;;;;;;4881434;28;38700;-77
2023/03/08 01:28:52;;;;;;;3.37;1.50;;;-0.50;99.90;;;;;;4900439;29;38365;-77
2023/03/08 01:31:24;;;;;;;4.87;1.73;;;-0.50;99.90;;;;;;4892340;28;37453;-77
2023/03/08 01:33:51;;;;;;;4.38;2.10;;;-0.60;99.90;;;;;;4904728;28;37007;-76
2023/03/08 01:36:20;;;;;;;7.93;1.97;;;-0.60;99.90;;;;;;4893241;28;37668;-76
2023/03/08 01:38:46;;;;;;;4.07;2.23;;;-0.60;99.90;;;;;;4893277;29;38703;-77
2023/03/08 01:41:16;;;;;;;7.17;2.77;;;-0.60;99.90;;;;;;4907571;28;38346;-76
2023/03/08 01:43:43;;;;;;;6.63;2.57;;;-0.60;99.90;;;;;;4909186;29;37464;-77
2023/03/08 01:46:15;;;;;;;10.87;6.00;;;-0.60;99.90;;;;;;4923607;28;39712;-77
2023/03/08 01:48:51;;;;;;;10.23;4.57;;;-0.50;99.90;;;;;;4901764;28;38564;-76
2023/03/08 01:51:34;;;;;;;13.47;5.70;;;-0.40;99.90;;;;;;4903523;28;38584;-78
2023/03/08 01:54:08;;;;;;;12.13;8.07;;;-0.30;99.90;;;;;;4890065;29;38420;-77
2023/03/08 01:56:36;;;;;;;22.50;11.50;;;-0.30;99.90;;;;;;4890058;29;47133;-76
2023/03/08 01:59:03;;;;;;;26.13;13.67;;;-0.20;99.90;;;;;;4908719;28;38474;-78
2023/03/08 02:04:00;;;;;;;29.37;14.97;;;-0.20;99.90;;;;;;4887227;29;20049;-72
2023/03/08 02:06:27;;;;;;;31.80;16.17;;;-0.10;99.90;;;;;;4885758;29;38640;-73
2023/03/08 02:08:54;;;;;;;30.10;17.53;;;-0.10;99.90;;;;;;4891625;29;37106;-72
2023/03/08 02:11:21;;;;;;;30.73;19.03;;;-0.10;99.90;;;;;;4890411;29;40938;-75
2023/03/08 02:13:49;;;;;;;32.80;18.67;;;-0.10;99.90;;;;;;4912455;29;36987;-72
2023/03/08 02:16:16;;;;;;;33.67;18.00;;;-0.10;99.90;;;;;;4907348;29;40052;-72
2023/03/08 02:19:02;;;;;;;27.87;17.60;;;0.00;99.90;;;;;;4906178;29;38920;-72
2023/03/08 02:21:30;;;;;;;38.53;18.90;;;-0.10;99.90;;;;;;4895377;29;47253;-74
2023/03/08 02:24:05;;;;;;;41.57;21.53;;;-0.20;99.90;;;;;;4909280;29;39400;-74
2023/03/08 02:26:35;;;;;;;36.13;19.47;;;-0.30;99.90;;;;;;4911415;29;48059;-73
2023/03/08 02:29:01;;;;;;;34.87;19.50;;;-0.30;99.90;;;;;;4892515;29;37068;-73
2023/03/08 02:31:27;;;;;;;34.90;18.77;;;-0.30;99.90;;;;;;4909519;29;47455;-74
2023/03/08 02:33:53;;;;;;;35.27;19.90;;;-0.40;99.90;;;;;;4912769;29;37477;-73
2023/03/08 02:36:19;;;;;;;36.97;20.10;;;-0.40;99.90;;;;;;4895054;29;38454;-73
2023/03/08 02:38:45;;;;;;;30.73;19.20;;;-0.40;99.90;;;;;;4893648;29;37192;-73
2023/03/08 02:41:11;;;;;;;34.27;18.80;;;-0.40;99.90;;;;;;4909139;29;39393;-73
2023/03/08 02:43:37;;;;;;;33.93;19.10;;;-0.40;99.90;;;;;;4895749;29;37381;-73
2023/03/08 02:46:04;;;;;;;29.20;17.23;;;-0.40;99.90;;;;;;4897098;29;38982;-73
2023/03/08 02:48:30;;;;;;;24.60;14.60;;;-0.30;99.90;;;;;;4913378;29;38625;-73
2023/03/08 02:50:56;;;;;;;37.00;20.03;;;-0.30;99.90;;;;;;4911360;29;38209;-74
2023/03/08 02:53:22;;;;;;;32.23;18.13;;;-0.30;99.90;;;;;;4890222;29;37467;-73
2023/03/08 02:55:48;;;;;;;32.37;17.30;;;-0.30;99.90;;;;;;4908578;29;40353;-73
2023/03/08 02:58:15;;;;;;;28.90;16.40;;;-0.30;99.90;;;;;;4905894;29;37502;-73
2023/03/08 03:00:42;;;;;;;31.07;18.57;;;-0.30;99.90;;;;;;4890851;29;38068;-73
2023/03/08 03:03:08;;;;;;;29.63;18.00;;;-0.30;99.90;;;;;;4892673;29;36287;-73
2023/03/08 03:05:34;;;;;;;32.07;17.43;;;-0.20;99.90;;;;;;4910713;29;38929;-73
2023/03/08 03:08:00;;;;;;;30.23;16.70;;;-0.20;99.90;;;;;;4909009;29;37417;-73
2023/03/08 03:10:26;;;;;;;28.07;16.70;;;-0.10;99.90;;;;;;4907555;29;34014;-73
2023/03/08 03:12:53;;;;;;;38.17;18.53;;;-0.20;99.90;;;;;;4911946;29;37668;-73
2023/03/08 03:15:19;;;;;;;37.60;20.23;;;-0.20;99.90;;;;;;4915133;29;37579;-73
2023/03/08 03:17:45;;;;;;;32.00;18.07;;;-0.20;99.90;;;;;;4904103;29;38413;-73
2023/03/08 03:20:12;;;;;;;43.83;24.80;;;-0.10;99.90;;;;;;4904288;29;37083;-74
2023/03/08 03:22:38;;;;;;;48.40;25.97;;;-0.10;99.90;;;;;;4889245;29;36705;-73
2023/03/08 03:25:04;;;;;;;37.40;21.37;;;0.00;99.90;;;;;;4909706;29;38542;-74
2023/03/08 03:27:30;;;;;;;43.30;22.90;;;0.00;99.90;;;;;;4899331;29;37085;-73
2023/03/08 03:29:56;;;;;;;32.60;20.17;;;0.00;99.90;;;;;;4906391;29;37182;-73
2023/03/08 03:32:23;;;;;;;39.00;23.17;;;0.00;99.90;;;;;;4909728;29;38450;-74
2023/03/08 03:34:49;;;;;;;47.93;25.73;;;0.00;99.90;;;;;;4893153;29;37771;-73
2023/03/08 03:37:15;;;;;;;49.33;27.00;;;0.10;99.90;;;;;;4891026;29;37961;-73
2023/03/08 03:39:41;;;;;;;63.47;31.70;;;0.20;99.90;;;;;;4908417;29;38804;-73
2023/03/08 03:42:07;;;;;;;77.73;35.47;;;0.20;99.90;;;;;;4909832;29;36780;-73
2023/03/08 03:44:33;;;;;;;70.47;33.53;;;0.30;99.90;;;;;;4907749;29;39622;-73
2023/03/08 03:47:00;;;;;;;65.30;33.13;;;0.40;99.90;;;;;;4895752;29;37386;-73
2023/03/08 03:49:26;;;;;;;75.80;35.53;;;0.40;99.90;;;;;;4901029;29;38433;-73
2023/03/08 03:51:52;;;;;;;77.67;35.63;;;0.40;99.90;;;;;;4900563;29;37619;-74
2023/03/08 03:54:18;;;;;;;54.47;30.03;;;0.50;99.90;;;;;;4901623;29;37713;-73
2023/03/08 03:56:44;;;;;;;62.57;33.93;;;0.40;99.90;;;;;;4904432;29;38335;-73
2023/03/08 03:59:11;;;;;;;55.20;29.93;;;0.40;99.90;;;;;;4887914;29;38295;-74
2023/03/08 04:01:37;;;;;;;60.67;32.63;;;0.40;99.90;;;;;;4900119;29;37035;-75
2023/03/08 04:04:03;;;;;;;63.63;34.60;;;0.40;99.90;;;;;;4899905;29;38926;-74
2023/03/08 04:06:31;;;;;;;59.13;32.80;;;0.40;99.90;;;;;;4888461;29;37289;-72
2023/03/08 04:09:02;;;;;;;58.13;32.80;;;0.40;99.90;;;;;;4888281;29;37711;-73
2023/03/08 04:11:32;;;;;;;59.73;33.77;;;0.40;99.90;;;;;;4900519;29;47535;-73
2023/03/08 04:13:58;;;;;;;54.80;30.60;;;0.50;99.90;;;;;;4888980;29;37440;-73
2023/03/08 04:16:28;;;;;;;60.70;32.27;;;0.60;99.90;;;;;;4892703;29;37507;-75
2023/03/08 04:18:56;;;;;;;51.73;31.67;;;0.60;99.90;;;;;;4898241;29;36955;-75
2023/03/08 04:21:23;;;;;;;65.37;34.30;;;0.60;99.90;;;;;;4911431;29;38092;-73
2023/03/08 04:23:49;;;;;;;60.47;34.60;;;0.50;99.90;;;;;;4892028;29;37692;-73
2023/03/08 04:26:15;;;;;;;69.77;35.47;;;0.60;99.90;;;;;;4909226;29;39375;-73
2023/03/08 04:28:42;;;;;;;73.00;36.90;;;0.60;99.90;;;;;;4893096;29;37824;-73
2023/03/08 04:31:19;;;;;;;71.63;36.93;;;0.70;99.90;;;;;;4904755;29;37296;-73
2023/03/08 04:33:46;;;;;;;71.90;38.40;;;0.70;99.90;;;;;;4903784;29;38815;-73
2023/03/08 04:36:13;;;;;;;75.97;39.33;;;0.70;99.90;;;;;;4903612;29;38302;-73
2023/03/08 04:38:39;;;;;;;91.57;46.97;;;0.80;99.90;;;;;;4884587;29;36983;-73
2023/03/08 04:41:11;;;;;;;96.70;45.97;;;0.80;99.90;;;;;;4892187;29;36304;-73
2023/03/08 04:43:46;;;;;;;75.85;41.63;;;0.80;99.90;;;;;;4901348;29;38649;-73
2023/03/08 04:46:13;;;;;;;91.20;45.30;;;0.90;99.90;;;;;;4896064;29;37400;-73
2023/03/08 04:48:39;;;;;;;119.77;53.57;;;0.90;99.90;;;;;;4894348;29;36712;-72
2023/03/08 04:51:07;;;;;;;105.23;49.87;;;0.90;99.90;;;;;;4892342;29;36523;-73
2023/03/08 04:53:34;;;;;;;88.20;47.10;;;0.90;99.90;;;;;;4906948;29;39234;-73
2023/03/08 04:56:01;;;;;;;100.80;48.07;;;0.90;99.90;;;;;;4892862;29;38068;-72
2023/03/08 04:58:28;;;;;;;103.53;49.40;;;0.90;99.90;;;;;;4907086;29;47644;-73
2023/03/08 05:00:55;;;;;;;76.57;42.63;;;0.90;99.90;;;;;;4892534;29;36295;-72
2023/03/08 05:03:21;;;;;;;98.30;46.80;;;0.90;99.90;;;;;;4889209;29;38190;-72
2023/03/08 05:05:50;;;;;;;126.77;55.10;;;0.90;99.90;;;;;;4888810;29;36942;-72
2023/03/08 05:08:17;;;;;;;110.50;50.93;;;0.90;99.90;;;;;;4889870;29;37374;-73
2023/03/08 05:10:59;;;;;;;95.73;49.47;;;1.00;99.90;;;;;;4906084;29;37769;-73
2023/03/08 05:13:27;;;;;;;98.50;47.13;;;1.00;99.90;;;;;;4890587;29;37416;-74
2023/03/08 05:15:53;;;;;;;92.70;44.93;;;1.00;99.90;;;;;;4890277;29;38681;-74
2023/03/08 05:18:19;;;;;;;78.93;41.70;;;0.90;99.90;;;;;;4889200;29;38121;-73
2023/03/08 05:21:02;;;;;;;85.83;41.63;;;0.90;99.90;;;;;;4892262;29;37242;-72
2023/03/08 05:23:29;;;;;;;;;;;0.90;99.90;;;;;;4892778;29;37763;-72
2023/03/08 05:25:57;;;;;;;88.03;42.63;;;0.90;99.90;;;;;;4905948;29;37613;-72
2023/03/08 05:28:25;;;;;;;71.37;39.90;;;1.00;99.90;;;;;;4911654;29;37918;-73
2023/03/08 05:31:06;;;;;;;68.33;37.70;;;1.00;99.90;;;;;;4893099;29;36441;-73
2023/03/08 05:33:33;;;;;;;123.40;51.77;;;1.00;99.90;;;;;;4889834;29;47531;-74
2023/03/08 05:35:59;;;;;;;88.20;41.90;;;1.00;99.90;;;;;;4905775;29;38460;-73
2023/03/08 05:38:27;;;;;;;83.93;43.33;;;1.00;99.90;;;;;;4909785;29;20045;-73
2023/03/08 05:40:53;;;;;;;71.30;39.83;;;1.00;99.90;;;;;;4912991;29;37589;-73
2023/03/08 05:43:20;;;;;;;76.97;38.77;;;1.00;99.90;;;;;;4908913;29;37727;-73
2023/03/08 05:46:01;;;;;;;97.10;47.77;;;1.00;99.90;;;;;;4893352;29;39200;-73
2023/03/08 05:48:29;;;;;;;95.53;48.47;;;1.00;99.90;;;;;;4903925;29;48852;-73
2023/03/08 05:50:55;;;;;;;74.33;42.93;;;1.10;99.90;;;;;;4886641;29;37771;-75
2023/03/08 05:53:22;;;;;;;82.30;43.60;;;1.10;99.90;;;;;;4907528;29;37642;-73
2023/03/08 05:55:48;;;;;;;87.13;48.37;;;1.10;99.90;;;;;;4908113;29;38791;-72
2023/03/08 05:58:15;;;;;;;99.97;51.47;;;1.10;99.90;;;;;;4889549;29;36973;-72
2023/03/08 06:00:41;;;;;;;87.50;47.93;;;1.10;99.90;;;;;;4881163;29;36448;-72
2023/03/08 06:03:07;;;;;;;82.80;47.03;;;1.10;99.90;;;;;;4885761;29;38661;-73
2023/03/08 06:05:34;;;;;;;119.93;53.43;;;1.10;99.90;;;;;;4885138;29;37531;-73
2023/03/08 06:08:00;;;;;;;131.97;57.80;;;1.10;99.90;;;;;;4887117;29;37804;-72
2023/03/08 06:10:26;;;;;;;107.77;51.70;;;1.10;99.90;;;;;;4905952;29;47561;-72
2023/03/08 06:12:52;;;;;;;116.63;56.57;;;1.20;99.90;;;;;;4899328;29;38684;-72
2023/03/08 06:15:19;;;;;;;122.77;59.30;;;1.20;99.90;;;;;;4882481;29;38283;-71
2023/03/08 06:17:45;;;;;;;174.70;68.10;;;1.20;99.90;;;;;;4908524;29;39224;-71
2023/03/08 06:20:11;;;;;;;115.30;55.13;;;1.20;99.90;;;;;;4901885;29;37425;-71
2023/03/08 06:22:37;;;;;;;135.40;62.33;;;1.20;99.90;;;;;;4887090;29;37455;-72
2023/03/08 06:25:04;;;;;;;118.60;60.13;;;1.20;99.90;;;;;;4888379;29;37499;-72
2023/03/08 06:27:30;;;;;;;163.47;66.53;;;1.20;99.90;;;;;;4885139;29;38167;-71
2023/03/08 06:29:56;;;;;;;215.63;74.97;;;1.30;99.90;;;;;;4903964;29;37722;-73
2023/03/08 06:32:22;;;;;;;114.77;55.63;;;1.30;99.90;;;;;;4904668;29;37623;-70
2023/03/08 06:34:48;;;;;;;151.40;64.77;;;1.30;99.90;;;;;;4887614;29;38247;-72
2023/03/08 06:37:15;;;;;;;173.17;71.80;;;1.30;99.90;;;;;;4896483;29;38289;-73
2023/03/08 06:39:41;;;;;;;131.90;64.53;;;1.30;99.90;;;;;;4882208;29;36322;-71
2023/03/08 06:42:07;;;;;;;174.47;69.37;;;1.40;99.90;;;;;;4891982;29;37476;-73
2023/03/08 06:44:34;;;;;;;192.03;75.10;;;1.40;99.90;;;;;;4904143;29;37378;-73
2023/03/08 06:47:00;;;;;;;144.57;63.87;;;1.40;99.90;;;;;;4891214;29;38337;-74
2023/03/08 06:49:26;;;;;;;148.73;63.90;;;1.40;99.90;;;;;;4906833;29;37337;-73
2023/03/08 06:51:52;;;;;;;142.27;66.73;;;1.40;99.90;;;;;;4908772;29;39247;-73
2023/03/08 06:54:18;;;;;;;115.67;59.33;;;1.40;99.90;;;;;;4911062;29;39247;-75
2023/03/08 06:56:46;;;;;;;189.53;72.93;;;1.40;99.90;;;;;;4887932;29;37094;-73
2023/03/08 06:59:13;;;;;;;169.20;67.93;;;1.40;99.90;;;;;;4901891;29;36567;-74
2023/03/08 07:01:39;;;;;;;171.97;67.13;;;1.50;99.90;;;;;;4910179;29;38913;-73
2023/03/08 07:04:06;;;;;;;122.87;58.20;;;1.50;99.90;;;;;;4892137;29;38367;-74
2023/03/08 07:06:32;;;;;;;145.80;61.87;;;1.50;99.90;;;;;;4893333;29;36989;-74
2023/03/08 07:08:58;;;;;;;130.33;58.23;;;1.50;99.90;;;;;;4891558;29;36492;-73
2023/03/08 07:11:26;;;;;;;153.80;62.13;;;1.40;99.90;;;;;;4911308;29;38563;-73
2023/03/08 07:13:52;;;;;;;131.80;55.37;;;1.40;99.90;;;;;;4891996;29;37238;-73
2023/03/08 07:16:18;;;;;;;186.03;63.33;;;1.40;99.90;;;;;;4892466;29;36929;-74
2023/03/08 07:18:44;;;;;;;142.63;56.70;;;1.30;99.90;;;;;;4895813;29;37187;-73
2023/03/08 07:21:11;;;;;;;154.37;59.17;;;1.30;99.90;;;;;;4922030;29;38717;-73
2023/03/08 07:23:37;;;;;;;143.90;57.97;;;1.20;99.90;;;;;;4896252;29;37424;-73
2023/03/08 07:26:07;;;;;;;160.43;60.77;;;1.20;99.90;;;;;;4906407;29;39285;-74
2023/03/08 07:28:33;;;;;;;174.30;61.90;;;1.20;99.90;;;;;;4896276;29;36421;-73
2023/03/08 07:30:59;;;;;;;140.33;55.63;;;1.20;99.90;;;;;;4914508;29;37513;-74
2023/03/08 07:33:25;;;;;;;118.53;50.27;;;1.20;99.90;;;;;;4892831;29;38066;-73
2023/03/08 07:35:51;;;;;;;142.50;53.20;;;1.20;99.90;;;;;;4908430;29;38905;-74
2023/03/08 07:38:18;;;;;;;135.27;54.73;;;1.10;99.90;;;;;;4891701;29;37613;-75
2023/03/08 07:40:44;;;;;;;120.80;49.23;;;1.10;99.90;;;;;;4889067;29;38669;-74
2023/03/08 07:43:10;;;;;;;149.27;52.03;;;1.10;99.90;;;;;;4913112;29;37010;-74
2023/03/08 07:45:41;;;;;;;111.03;47.87;;;1.00;99.90;;;;;;4911504;29;38994;-72
2023/03/08 07:48:07;;;;;;;112.13;47.53;;;1.10;99.90;;;;;;4909674;29;37340;-74
2023/03/08 07:50:33;;;;;;;132.13;49.70;;;1.10;99.90;;;;;;4913859;29;39220;-77
2023/03/08 07:53:00;;;;;;;112.93;46.07;;;1.00;99.90;;;;;;4889995;29;37450;-74
2023/03/08 07:55:26;;;;;;;131.17;47.77;;;1.10;99.90;;;;;;4923705;29;38097;-76
2023/03/08 07:57:52;;;;;;;219.03;58.80;;;1.10;99.90;;;;;;4896165;29;36523;-76
2023/03/08 08:00:19;;;;;;;96.27;39.57;;;1.10;99.90;;;;;;4894532;29;39212;-74
2023/03/08 08:02:46;;;;;;;117.30;43.57;;;1.10;99.90;;;;;;4895685;29;47165;-74
2023/03/08 08:05:13;;;;;;;105.83;43.50;;;1.10;99.90;;;;;;4897351;29;36961;-74
2023/03/08 08:07:39;;;;;;;101.83;41.73;;;1.10;99.90;;;;;;4906968;29;36935;-77
2023/03/08 08:10:07;;;;;;;129.13;47.07;;;1.10;99.90;;;;;;4896753;29;37805;-75
2023/03/08 08:12:33;;;;;;;97.40;40.97;;;1.00;99.90;;;;;;4893280;29;38451;-76
2023/03/08 08:14:59;;;;;;;107.83;41.77;;;1.00;99.90;;;;;;4888357;29;37333;-75
2023/03/08 08:17:25;;;;;;;127.17;44.87;;;1.00;99.90;;;;;;4901505;29;37357;-75
2023/03/08 08:19:51;;;;;;;103.27;44.17;;;1.00;99.90;;;;;;4911551;29;39835;-74
2023/03/08 08:22:17;;;;;;;105.67;42.67;;;1.00;99.90;;;;;;4909544;29;39464;-76
2023/03/08 08:24:44;;;;;;;93.10;41.40;;;1.00;99.90;;;;;;4887660;29;37170;-75
2023/03/08 08:27:10;;;;;;;99.10;41.40;;;1.00;99.90;;;;;;4914181;29;37273;-76
2023/03/08 08:29:37;;;;;;;89.13;39.27;;;1.00;99.90;;;;;;4903604;29;38880;-76
2023/03/08 08:32:03;;;;;;;87.80;38.57;;;1.00;99.90;;;;;;4917154;29;37481;-77
2023/03/08 08:34:29;;;;;;;78.27;37.00;;;1.10;99.90;;;;;;4912384;29;37535;-77
2023/03/08 08:36:55;;;;;;;98.97;40.60;;;1.10;99.90;;;;;;4896811;29;37437;-76
2023/03/08 08:39:22;;;;;;;95.97;39.20;;;1.10;99.90;;;;;;4899718;29;37370;-75
2023/03/08 08:41:49;;;;;;;87.47;37.17;;;1.10;99.90;;;;;;4920227;29;38203;-77
2023/03/08 08:44:15;;;;;;;94.50;39.20;;;1.10;99.90;;;;;;4915181;29;38318;-77
2023/03/08 08:46:42;;;;;;;91.80;37.87;;;1.10;99.90;;;;;;4898641;29;37009;-75
2023/03/08 08:49:09;;;;;;;85.77;36.47;;;1.10;99.90;;;;;;4899740;29;37272;-78
2023/03/08 08:51:35;;;;;;;81.90;33.90;;;1.10;99.90;;;;;;4904717;29;38505;-77
2023/03/08 08:54:02;;;;;;;87.23;34.47;;;1.00;99.90;;;;;;4913893;29;37024;-76
2023/03/08 08:56:28;;;;;;;74.70;33.23;;;1.10;99.90;;;;;;4895093;29;47449;-76
2023/03/08 08:58:55;;;;;;;78.80;32.93;;;1.10;99.90;;;;;;4915497;29;39857;-77
2023/03/08 09:01:27;;;;;;;67.67;29.67;;;1.10;99.90;;;;;;4918301;29;37170;-77
2023/03/08 09:03:54;;;;;;;62.35;28.80;;;1.10;99.90;;;;;;4896840;29;37127;-76
2023/03/08 09:06:22;;;;;;;68.33;31.27;;;1.20;99.90;;;;;;4895235;29;36698;-76
2023/03/08 09:08:50;;;;;;;77.43;32.00;;;1.20;99.90;;;;;;4898493;29;38874;-76
2023/03/08 09:11:16;;;;;;;65.10;28.43;;;1.20;99.90;;;;;;4885299;29;37582;-76
2023/03/08 09:13:42;;;;;;;57.50;27.73;;;1.30;99.90;;;;;;4912528;29;39100;-77
2023/03/08 09:16:26;;;;;;;60.80;28.47;;;1.30;99.90;;;;;;4895419;29;36382;-76
2023/03/08 09:18:55;;;;;;;56.77;28.03;;;1.30;99.90;;;;;;4901549;29;38661;-74
2023/03/08 09:21:22;;;;;;;60.13;29.03;;;1.30;99.90;;;;;;4900085;29;38339;-76
2023/03/08 09:23:48;;;;;;;60.30;29.20;;;1.40;99.90;;;;;;4900227;29;37360;-76
2023/03/08 09:26:14;;;;;;;56.80;29.20;;;1.40;99.90;;;;;;4897647;29;36084;-76
2023/03/08 09:28:41;;;;;;;59.97;28.93;;;1.50;99.90;;;;;;4887564;29;38133;-75
2023/03/08 09:31:13;;;;;;;57.20;28.17;;;1.50;99.90;;;;;;4894324;29;37158;-75
2023/03/08 09:33:42;;;;;;;54.97;26.45;;;1.70;99.90;;;;;;4894936;29;37427;-76
2023/03/08 09:36:08;;;;;;;60.00;28.63;;;1.80;99.90;;;;;;4885205;29;37686;-74
2023/03/08 09:38:35;;;;;;;52.57;26.67;;;1.90;99.90;;;;;;4911453;29;38614;-74
2023/03/08 09:41:04;;;;;;;54.23;28.27;;;1.90;99.90;;;;;;4894000;29;38094;-74
2023/03/08 09:43:57;;;;;;;44.77;23.90;;;2.00;99.90;;;;;;4917189;29;47189;-74
2023/03/08 09:46:27;;;;;;;;;;;2.10;99.90;;;;;;4897263;29;37257;-75
2023/03/08 09:48:59;;;;;;;46.80;23.30;;;2.10;99.90;;;;;;4898226;29;37825;-75
2023/03/08 09:51:31;;;;;;;39.08;21.85;;;2.20;99.90;;;;;;4909147;29;38979;-76
2023/03/08 09:54:04;;;;;;;34.03;20.88;;;2.30;99.90;;;;;;4922769;29;38215;-75
2023/03/08 09:56:37;;;;;;;40.05;22.98;;;2.30;99.90;;;;;;4913986;29;48641;-75
2023/03/08 09:59:45;;;;;;;33.63;20.03;;;2.40;99.90;;;;;;4893787;29;38732;-76
2023/03/08 10:02:43;;;;;;;29.57;18.33;;;2.50;99.90;;;;;;4884896;29;37590;-75
2023/03/08 10:05:19;;;;;;;26.73;16.47;;;2.40;99.90;;;;;;4875595;29;38617;-75
2023/03/08 10:08:08;;;;;;;29.97;18.83;;;2.20;99.90;;;;;;4879726;29;37798;-75
2023/03/08 10:10:46;;;;;;;27.67;16.73;;;2.50;99.90;;;;;;4873093;29;47372;-74
2023/03/08 10:13:32;;;;;;;26.10;15.83;;;2.60;99.90;;;;;;4873862;29;38149;-74
2023/03/08 10:16:23;;;;;;;25.70;17.20;;;2.40;99.90;;;;;;4877008;29;38909;-74
2023/03/08 10:18:51;;;;;;;23.93;15.37;;;2.50;99.90;;;;;;4875226;29;47241;-76
2023/03/08 10:21:21;;;;;;;24.63;15.47;;;2.70;99.90;;;;;;4889172;29;37586;-76
2023/03/08 10:23:56;;;;;;;21.50;14.47;;;2.80;99.90;;;;;;4873297;29;39134;-75
2023/03/08 10:26:25;;;;;;;20.73;13.27;;;2.70;99.90;;;;;;4886919;29;39846;-75
2023/03/08 10:28:51;;;;;;;18.00;12.67;;;2.70;99.90;;;;;;4875244;29;37792;-75
2023/03/08 10:31:24;;;;;;;16.47;11.53;;;2.70;99.90;;;;;;4881413;29;37759;-76
2023/03/08 10:33:59;;;;;;;15.83;10.57;;;3.00;99.90;;;;;;4889436;29;39303;-76
2023/03/08 10:36:26;;;;;;;14.63;9.47;;;3.00;99.90;;;;;;4872688;29;37684;-75
2023/03/08 10:39:04;;;;;;;11.70;7.93;;;2.90;99.90;;;;;;4872765;29;36234;-76
2023/03/08 10:41:35;;;;;;;10.57;7.63;;;3.00;99.90;;;;;;4869540;29;46860;-75
2023/03/08 10:44:01;;;;;;;12.53;7.83;;;3.30;99.90;;;;;;4874923;29;37795;-77
2023/03/08 10:46:30;;;;;;;10.87;7.40;;;3.30;99.90;;;;;;4873852;29;48522;-75
2023/03/08 10:49:08;;;;;;;10.93;7.37;;;3.10;99.90;;;;;;4874782;29;37393;-76
2023/03/08 10:51:35;;;;;;;10.57;7.03;;;3.10;99.90;;;;;;4883932;29;47045;-75
2023/03/08 10:54:04;;;;;;;8.87;6.83;;;3.20;99.90;;;;;;4870352;29;39664;-75
2023/03/08 10:56:58;;;;;;;10.50;7.43;;;3.10;99.90;;;;;;4886488;29;47347;-77
2023/03/08 10:59:31;;;;;;;11.07;7.80;;;3.20;99.90;;;;;;4875029;29;37216;-74
2023/03/08 11:02:11;;;;;;;10.43;6.53;;;3.50;99.90;;;;;;4870064;29;38961;-75
2023/03/08 11:04:48;;;;;;;8.80;5.70;;;3.40;99.90;;;;;;4873591;29;47124;-75
2023/03/08 11:07:28;;;;;;;8.13;5.17;;;3.40;99.90;;;;;;4871146;29;37838;-75
2023/03/08 11:10:17;;;;;;;9.10;5.53;;;3.30;99.90;;;;;;4885019;29;36001;-77
2023/03/08 11:12:44;;;;;;;8.30;5.47;;;3.30;99.90;;;;;;4857215;29;49093;-75
2023/03/08 11:15:18;;;;;;;6.97;5.03;;;3.30;99.90;;;;;;4886992;29;37391;-75
2023/03/08 11:18:18;;;;;;;10.93;6.47;;;3.20;99.90;;;;;;4871317;29;36932;-76
2023/03/08 11:20:53;;;;;;;10.03;6.00;;;3.30;99.90;;;;;;4885055;29;48008;-74
2023/03/08 11:23:57;;;;;;;15.57;6.50;;;3.20;99.90;;;;;;4871189;29;38973;-74
2023/03/08 11:26:49;;;;;;;7.57;6.10;;;3.30;99.90;;;;;;4851003;29;37241;-75
2023/03/08 11:29:35;;;;;;;8.47;6.33;;;3.50;99.90;;;;;;4867918;29;37934;-75
2023/03/08 11:32:13;;;;;;;9.80;6.87;;;3.60;99.90;;;;;;4866131;29;37115;-77
2023/03/08 11:34:52;;;;;;;9.20;7.07;;;3.70;99.90;;;;;;4874250;29;38704;-75
2023/03/08 11:37:50;;;;;;;9.23;7.00;;;4.10;99.90;;;;;;4874292;29;38354;-74
2023/03/08 11:40:27;;;;;;;10.10;7.27;;;4.10;99.90;;;;;;4870769;29;36893;-74
2023/03/08 11:42:53;;;;;;;12.43;8.67;;;4.00;99.90;;;;;;4872233;29;37249;-75
2023/03/08 11:45:30;;;;;;;10.93;7.20;;;3.60;99.90;;;;;;4870600;29;38269;-75
2023/03/08 11:48:14;;;;;;;11.10;7.13;;;3.70;99.90;;;;;;4873581;29;38403;-75
2023/03/08 11:50:48;;;;;;;13.07;7.80;;;3.60;99.90;;;;;;4860514;29;47187;-74
2023/03/08 11:53:47;;;;;;;12.07;8.73;;;3.30;99.90;;;;;;4859591;29;36364;-73
2023/03/08 11:56:34;;;;;;;13.63;8.87;;;3.20;99.90;;;;;;4874573;29;37758;-73
2023/03/08 11:59:12;;;;;;;13.03;9.90;;;3.20;99.90;;;;;;4874670;29;37571;-73
2023/03/08 12:02:04;;;;;;;13.73;9.50;;;3.20;99.90;;;;;;4886673;29;47432;-72
2023/03/08 12:04:35;;;;;;;14.90;10.07;;;3.20;99.90;;;;;;4885085;29;47100;-74
2023/03/08 12:07:24;;;;;;;16.30;10.40;;;3.20;99.90;;;;;;4900019;29;39315;-73
2023/03/08 12:10:20;;;;;;;18.43;10.77;;;3.30;99.90;;;;;;4873519;29;47157;-74
2023/03/08 12:12:49;;;;;;;13.63;10.13;;;3.40;99.90;;;;;;4891601;29;47749;-74
2023/03/08 12:15:37;;;;;;;13.00;9.73;;;3.30;99.90;;;;;;4892346;29;38283;-75
2023/03/08 12:18:22;;;;;;;13.73;10.67;;;3.20;99.90;;;;;;4879715;29;38944;-73
2023/03/08 12:20:53;;;;;;;14.67;10.07;;;3.20;99.90;;;;;;4882633;29;37411;-75
2023/03/08 12:23:29;;;;;;;15.93;11.27;;;3.20;99.90;;;;;;4880931;29;37057;-74
2023/03/08 12:26:07;;;;;;;13.83;10.57;;;3.40;99.90;;;;;;4892625;29;36964;-75
2023/03/08 12:28:45;;;;;;;18.37;11.10;;;3.50;99.90;;;;;;4883602;29;47293;-75
2023/03/08 12:31:40;;;;;;;12.87;10.10;;;3.60;99.90;;;;;;4886857;29;37269;-74
2023/03/08 12:34:26;;;;;;;15.50;10.43;;;3.70;99.90;;;;;;4886265;29;38264;-75
2023/03/08 12:36:53;;;;;;;16.53;9.60;;;3.70;99.90;;;;;;4887647;29;36476;-75
2023/03/08 12:39:27;;;;;;;15.60;9.97;;;3.60;99.90;;;;;;4887892;29;37848;-75
2023/03/08 12:42:09;;;;;;;12.53;9.00;;;3.60;99.90;;;;;;4891793;29;37322;-75
2023/03/08 12:44:36;;;;;;;15.17;9.47;;;3.60;99.90;;;;;;4899526;29;47480;-75
2023/03/08 12:47:22;;;;;;;13.20;9.53;;;3.60;99.90;;;;;;4889607;29;37654;-74
2023/03/08 12:49:55;;;;;;;11.23;8.67;;;3.80;99.90;;;;;;4902995;29;39582;-75
2023/03/08 12:52:34;;;;;;;13.17;9.07;;;3.70;99.90;;;;;;4885376;29;37133;-76
2023/03/08 12:55:20;;;;;;;11.20;8.57;;;3.70;99.90;;;;;;4906776;29;37001;-75